Time;durP1;ratioP1;P1;durP2;ratioP2;P2;SDS_P1;SDS_P2;PMS_P1;PMS_P2;Temp;Humidity;BMP_temperature;BMP_pressure;BME280_temperature;BME280_humidity;BME280_pressure;Samples;Min_cycle;Max_cycle;Signal;HPM_P1;HPM_P2
2021/01/09 00:01:27;;;;;;;0.10;0.10;;;;;;;-1.05;93.52;100591.65;1738185;82;21402;-47
2021/01/09 00:03:54;;;;;;;0.93;0.93;;;;;;;-1.07;93.49;100588.86;1749126;81;21130;-47
2021/01/09 00:06:21;;;;;;;0.68;0.68;;;;;;;-1.09;93.47;100599.77;1763558;81;21130;-48
2021/01/09 00:08:49;;;;;;;0.15;0.15;;;;;;;-1.14;93.53;100600.39;1763596;81;21277;-46
2021/01/09 00:11:16;;;;;;;0.20;0.20;;;;;;;-1.17;93.53;100589.22;1763544;81;21182;-47
2021/01/09 00:13:44;;;;;;;0.10;0.10;;;;;;;-1.22;93.53;100590.33;1763572;81;21146;-47
2021/01/09 00:16:11;;;;;;;0.25;0.25;;;;;;;-1.28;93.52;100593.81;1763596;81;21134;-48
2021/01/09 00:18:39;;;;;;;0.42;0.42;;;;;;;-1.37;93.56;100590.45;1763434;81;21462;-47
2021/01/09 00:21:06;;;;;;;0.42;0.42;;;;;;;-1.44;93.61;100584.22;1763545;81;21427;-48
2021/01/09 00:23:34;;;;;;;0.25;0.25;;;;;;;-1.51;93.66;100584.17;1763442;81;21159;-49
2021/01/09 00:26:02;;;;;;;0.53;0.53;;;;;;;-1.59;93.76;100569.08;1763514;81;21513;-46
2021/01/09 00:28:29;;;;;;;2.08;1.35;;;;;;;-1.65;93.89;100573.08;1763445;81;21150;-47
2021/01/09 00:30:57;;;;;;;0.80;0.42;;;;;;;-1.71;93.98;100576.53;1763503;81;21443;-49
2021/01/09 00:33:24;;;;;;;0.80;0.57;;;;;;;-1.78;94.11;100580.48;1763496;81;21178;-47
2021/01/09 00:35:56;;;;;;;0.10;0.10;;;;;;;-1.85;94.18;100583.14;1756432;81;21146;-46
2021/01/09 00:38:21;;;;;;;1.27;0.62;;;;;;;-1.91;94.40;100577.20;1763242;81;21143;-48
2021/01/09 00:40:49;;;;;;;0.03;0.03;;;;;;;-1.97;94.47;100574.80;1763385;81;21555;-48
2021/01/09 00:43:17;;;;;;;0.95;0.88;;;;;;;-2.04;94.54;100583.81;1763468;81;21174;-47
2021/01/09 00:45:44;;;;;;;0.62;0.62;;;;;;;-2.11;94.62;100584.26;1763441;81;21151;-46
2021/01/09 00:48:12;;;;;;;1.45;1.30;;;;;;;-2.19;94.79;100588.73;1763407;81;21003;-46
2021/01/09 00:50:39;;;;;;;0.30;0.30;;;;;;;-2.24;94.97;100592.49;1763489;81;21162;-48
2021/01/09 00:53:06;;;;;;;0.00;0.00;;;;;;;-2.29;95.22;100589.56;1763487;81;21134;-47
2021/01/09 00:55:34;;;;;;;1.20;1.10;;;;;;;-2.31;95.41;100580.89;1763514;81;21151;-47
2021/01/09 00:58:02;;;;;;;1.07;0.75;;;;;;;-2.34;95.59;100577.78;1763560;81;21145;-47
2021/01/09 01:00:29;;;;;;;0.65;0.65;;;;;;;-2.36;95.74;100577.96;1763288;81;21174;-48
2021/01/09 01:02:57;;;;;;;0.90;0.40;;;;;;;-2.40;95.90;100579.35;1763253;81;21186;-47
2021/01/09 01:05:24;;;;;;;0.53;0.53;;;;;;;-2.41;96.07;100581.20;1739524;81;21125;-47
2021/01/09 01:07:52;;;;;;;1.30;0.93;;;;;;;-2.42;96.21;100581.42;1738116;82;21118;-47
2021/01/09 01:10:19;;;;;;;0.50;0.50;;;;;;;-2.43;96.31;100581.08;1738195;82;21062;-47
2021/01/09 01:12:47;;;;;;;0.72;0.72;;;;;;;-2.45;96.46;100579.09;1738017;82;21181;-47
2021/01/09 01:15:15;;;;;;;0.95;0.95;;;;;;;-2.45;96.70;100575.09;1737761;82;21138;-46
2021/01/09 01:17:48;;;;;;;1.87;0.95;;;;;;;-2.44;96.88;100573.56;1737707;82;21114;-47
2021/01/09 01:20:15;;;;;;;0.20;0.20;;;;;;;-2.41;97.07;100577.70;1737795;82;21413;-47
2021/01/09 01:22:44;;;;;;;0.80;0.80;;;;;;;-2.39;97.22;100573.00;1737820;82;21122;-47
2021/01/09 01:25:12;;;;;;;0.70;0.70;;;;;;;-2.34;97.39;100572.43;1738023;82;21122;-47
2021/01/09 01:27:40;;;;;;;0.20;0.20;;;;;;;-2.29;97.54;100570.00;1738089;82;21110;-49
2021/01/09 01:30:08;;;;;;;1.17;0.33;;;;;;;-2.25;97.67;100568.09;1738169;82;21622;-47
2021/01/09 01:32:36;;;;;;;0.28;0.28;;;;;;;-2.20;97.78;100568.34;1738065;82;21126;-47
2021/01/09 01:35:06;;;;;;;0.80;0.80;;;;;;;-2.14;97.91;100555.20;1738050;82;21165;-47
2021/01/09 01:37:33;;;;;;;0.10;0.10;;;;;;;-2.08;97.97;100551.73;1737821;82;21608;-47
2021/01/09 01:40:06;;;;;;;0.13;0.13;;;;;;;-2.03;97.99;100549.30;1738038;82;21592;-47
2021/01/09 01:42:33;;;;;;;0.88;0.88;;;;;;;-1.98;98.00;100542.84;1738056;82;21138;-48
2021/01/09 01:45:02;;;;;;;0.08;0.08;;;;;;;-1.95;98.00;100543.81;1738097;82;21130;-48
2021/01/09 01:47:30;;;;;;;0.90;0.90;;;;;;;-1.92;98.05;100539.41;1738081;82;21189;-47
2021/01/09 01:49:58;;;;;;;0.20;0.20;;;;;;;-1.89;98.01;100534.17;1733681;82;21177;-47
2021/01/09 01:52:25;;;;;;;0.60;0.60;;;;;;;-1.87;97.99;100533.47;1738225;82;21162;-46
2021/01/09 01:54:52;;;;;;;0.10;0.10;;;;;;;-1.85;98.03;100532.24;1708967;82;21422;-47
2021/01/09 01:57:20;;;;;;;0.50;0.50;;;;;;;-1.82;98.04;100536.38;1738171;82;21118;-47
2021/01/09 01:59:47;;;;;;;0.30;0.30;;;;;;;-1.80;98.04;100536.50;1708785;82;21129;-46
2021/01/09 02:02:14;;;;;;;1.22;0.85;;;;;;;-1.77;98.10;100536.10;1708685;82;21110;-46
2021/01/09 02:04:49;;;;;;;4.75;0.80;;;;;;;-1.72;98.11;100538.72;1738028;81;21094;-48
2021/01/09 02:07:20;;;;;;;0.10;0.10;;;;;;;-1.69;98.13;100545.02;1710793;82;21213;-47
2021/01/09 02:09:48;;;;;;;0.40;0.40;;;;;;;-1.66;98.16;100547.29;1709091;82;21457;-47
2021/01/09 02:12:43;;;;;;;0.25;0.25;;;;;;;-1.63;98.19;100546.89;1738056;82;21545;-47
2021/01/09 02:15:11;;;;;;;0.10;0.10;;;;;;;-1.60;98.18;100545.18;1737923;82;21106;-47
2021/01/09 02:17:40;;;;;;;1.80;0.80;;;;;;;-1.55;98.15;100549.44;1738085;82;21138;-48
2021/01/09 02:20:08;;;;;;;0.40;0.40;;;;;;;-1.51;98.11;100542.63;1738152;82;21125;-47
2021/01/09 02:22:43;;;;;;;0.53;0.47;;;;;;;-1.48;98.05;100543.60;1709096;82;21479;-47
2021/01/09 02:25:11;;;;;;;0.20;0.20;;;;;;;-1.44;98.03;100545.36;1737951;82;21129;-47
2021/01/09 02:27:38;;;;;;;0.55;0.53;;;;;;;-1.42;97.97;100550.83;1738063;82;21575;-46
2021/01/09 02:30:11;;;;;;;0.10;0.10;;;;;;;-1.39;97.93;100546.41;1738089;82;21596;-47
2021/01/09 02:33:02;;;;;;;0.00;0.00;;;;;;;-1.36;97.92;100543.36;1738153;82;21126;-47
2021/01/09 02:35:33;;;;;;;1.27;1.17;;;;;;;-1.33;97.87;100539.45;1738142;82;21141;-48
2021/01/09 02:38:01;;;;;;;0.10;0.10;;;;;;;-1.30;97.81;100538.52;1738339;82;21173;-46
2021/01/09 02:40:29;;;;;;;0.00;0.00;;;;;;;-1.27;97.77;100541.84;1737907;82;21169;-46
2021/01/09 02:42:57;;;;;;;0.30;0.30;;;;;;;-1.26;97.71;100542.99;1733937;82;21189;-47
2021/01/09 02:45:25;;;;;;;0.00;0.00;;;;;;;-1.23;97.62;100541.77;1738207;82;21157;-47
2021/01/09 02:47:52;;;;;;;1.17;1.17;;;;;;;-1.22;97.57;100534.02;1738297;82;21193;-48
2021/01/09 02:50:19;;;;;;;0.23;0.23;;;;;;;-1.20;97.49;100540.84;1738170;82;21166;-47
2021/01/09 02:52:47;;;;;;;0.37;0.37;;;;;;;-1.19;97.45;100539.80;1738222;82;21129;-47
2021/01/09 02:55:14;;;;;;;0.57;0.57;;;;;;;-1.17;97.39;100536.41;1738249;82;21173;-44
2021/01/09 02:57:41;;;;;;;0.70;0.70;;;;;;;-1.16;97.34;100531.38;1738063;82;21130;-46
2021/01/09 03:00:12;;;;;;;0.80;0.80;;;;;;;-1.14;97.24;100528.47;1738120;82;21176;-46
2021/01/09 03:02:40;;;;;;;0.45;0.45;;;;;;;-1.13;97.19;100530.15;1738153;82;21137;-45
2021/01/09 03:05:09;;;;;;;0.35;0.35;;;;;;;-1.12;97.09;100529.11;1737998;81;21141;-44
2021/01/09 03:07:36;;;;;;;0.10;0.10;;;;;;;-1.11;97.04;100526.75;1738130;82;21142;-46
2021/01/09 03:10:07;;;;;;;0.55;0.55;;;;;;;-1.12;96.99;100517.86;1738206;82;21129;-44
2021/01/09 03:12:34;;;;;;;0.85;0.85;;;;;;;-1.10;96.93;100524.38;1738318;82;21324;-45
2021/01/09 03:15:04;;;;;;;0.33;0.33;;;;;;;-1.10;96.88;100523.03;1738300;82;21576;-45
2021/01/09 03:17:31;;;;;;;3.35;1.22;;;;;;;-1.11;96.83;100525.41;1738190;82;21144;-44
2021/01/09 03:19:58;;;;;;;0.40;0.40;;;;;;;-1.10;96.77;100535.10;1738119;82;21129;-45
2021/01/09 03:22:26;;;;;;;0.00;0.00;;;;;;;-1.10;96.71;100531.08;1738134;82;21098;-44
2021/01/09 03:24:54;;;;;;;0.47;0.28;;;;;;;-1.10;96.68;100537.78;1738131;82;21123;-44
2021/01/09 03:27:21;;;;;;;0.00;0.00;;;;;;;-1.10;96.61;100540.47;1738095;82;21137;-46
2021/01/09 03:29:48;;;;;;;0.20;0.20;;;;;;;-1.10;96.58;100537.78;1738032;82;21177;-44
2021/01/09 03:32:16;;;;;;;0.05;0.05;;;;;;;-1.12;96.53;100538.49;1738323;82;21089;-44
2021/01/09 03:34:44;;;;;;;0.55;0.55;;;;;;;-1.12;96.50;100537.15;1738212;82;21122;-44
2021/01/09 03:37:11;;;;;;;0.45;0.45;;;;;;;-1.14;96.46;100537.86;1738362;82;21141;-44
2021/01/09 03:39:39;;;;;;;1.45;0.57;;;;;;;-1.15;96.44;100538.37;1738163;82;21202;-45
2021/01/09 03:42:06;;;;;;;1.17;0.53;;;;;;;-1.15;96.42;100542.92;1738079;82;21133;-46
2021/01/09 03:44:35;;;;;;;0.17;0.17;;;;;;;-1.15;96.42;100540.23;1738072;82;21141;-45
2021/01/09 03:47:03;;;;;;;0.35;0.35;;;;;;;-1.17;96.41;100538.27;1738281;82;21150;-46
2021/01/09 03:49:31;;;;;;;0.33;0.10;;;;;;;-1.18;96.38;100544.15;1738130;82;21161;-46
2021/01/09 03:51:58;;;;;;;1.40;1.35;;;;;;;-1.18;96.39;100546.02;1738198;82;21162;-45
2021/01/09 03:54:26;;;;;;;1.35;0.98;;;;;;;-1.19;96.37;100552.38;1737973;82;21242;-45
2021/01/09 03:56:53;;;;;;;1.65;1.55;;;;;;;-1.19;96.35;100553.72;1738202;82;21118;-46
2021/01/09 03:59:21;;;;;;;0.20;0.20;;;;;;;-1.20;96.35;100548.06;1738041;82;21141;-45
2021/01/09 04:01:48;;;;;;;0.37;0.28;;;;;;;-1.19;96.36;100556.41;1738134;82;21125;-46
2021/01/09 04:04:16;;;;;;;1.52;1.15;;;;;;;-1.20;96.34;100552.08;1738116;81;21515;-45
2021/01/09 04:06:44;;;;;;;1.27;0.65;;;;;;;-1.21;96.33;100543.70;1738103;82;21437;-45
2021/01/09 04:09:11;;;;;;;0.15;0.15;;;;;;;-1.21;96.31;100553.94;1737847;82;21157;-46
2021/01/09 04:11:39;;;;;;;0.68;0.68;;;;;;;-1.20;96.30;100549.41;1738116;82;21620;-45
2021/01/09 04:14:07;;;;;;;0.35;0.35;;;;;;;-1.20;96.27;100552.08;1738099;82;21549;-45
2021/01/09 04:16:35;;;;;;;2.45;0.57;;;;;;;-1.22;96.28;100553.61;1738215;82;22021;-45
2021/01/09 04:19:03;;;;;;;0.00;0.00;;;;;;;-1.22;96.24;100550.93;1738100;82;21131;-45
2021/01/09 04:21:32;;;;;;;0.55;0.55;;;;;;;-1.22;96.25;100553.61;1738090;82;21129;-47
2021/01/09 04:24:00;;;;;;;0.57;0.57;;;;;;;-1.22;96.23;100547.42;1737892;82;21153;-46
2021/01/09 04:26:28;;;;;;;0.70;0.70;;;;;;;-1.24;96.24;100550.30;1738080;82;21841;-45
2021/01/09 04:28:55;;;;;;;2.12;1.98;;;;;;;-1.24;96.24;100557.52;1738161;82;21702;-45
2021/01/09 04:31:23;;;;;;;6.12;0.65;;;;;;;-1.24;96.29;100554.84;1738198;82;21196;-46
2021/01/09 04:33:50;;;;;;;0.47;0.47;;;;;;;-1.24;96.28;100557.52;1738318;82;21217;-45
2021/01/09 04:36:17;;;;;;;0.42;0.42;;;;;;;-1.25;96.31;100553.20;1738245;82;21137;-46
2021/01/09 04:38:45;;;;;;;0.47;0.45;;;;;;;-1.26;96.33;100557.73;1738255;82;21421;-46
2021/01/09 04:41:12;;;;;;;0.05;0.05;;;;;;;-1.24;96.36;100560.20;1738270;82;21162;-45
2021/01/09 04:43:40;;;;;;;1.55;0.80;;;;;;;-1.25;96.37;100555.87;1708902;82;21145;-45
2021/01/09 04:46:07;;;;;;;0.53;0.53;;;;;;;-1.26;96.40;100563.10;1738072;82;21584;-45
2021/01/09 04:48:35;;;;;;;0.10;0.10;;;;;;;-1.24;96.43;100570.92;1709157;82;21109;-46
2021/01/09 04:51:03;;;;;;;0.47;0.47;;;;;;;-1.25;96.45;100567.94;1709106;82;21465;-45
2021/01/09 04:53:30;;;;;;;0.75;0.75;;;;;;;-1.24;96.47;100569.58;1733683;82;21193;-45
2021/01/09 04:55:57;;;;;;;0.10;0.10;;;;;;;-1.25;96.53;100571.45;1733692;82;21169;-45
2021/01/09 04:58:25;;;;;;;10.35;2.20;;;;;;;-1.23;96.56;100572.59;1709086;82;21157;-45
2021/01/09 05:00:55;;;;;;;1.92;0.93;;;;;;;-1.22;96.62;100571.04;1738085;82;22055;-46
2021/01/09 05:03:22;;;;;;;1.12;1.12;;;;;;;-1.21;96.60;100572.71;1738126;82;21118;-45
2021/01/09 05:05:49;;;;;;;1.55;1.45;;;;;;;-1.20;96.65;100572.19;1722654;81;21214;-45
2021/01/09 05:08:18;;;;;;;4.22;1.92;;;;;;;-1.19;96.67;100569.81;1764622;80;21031;-45
2021/01/09 05:10:49;;;;;;;0.45;0.45;;;;;;;-1.18;96.69;100578.19;1732640;82;21126;-45
2021/01/09 05:13:17;;;;;;;0.33;0.33;;;;;;;-1.17;96.73;100578.49;1786399;80;21138;-46
2021/01/09 05:15:44;;;;;;;1.17;1.12;;;;;;;-1.16;96.76;100582.33;1786242;80;21142;-46
2021/01/09 05:18:11;;;;;;;2.77;2.45;;;;;;;-1.15;96.78;100578.61;1786339;80;21481;-45
2021/01/09 05:20:39;;;;;;;0.40;0.40;;;;;;;-1.14;96.78;100576.74;1786364;80;21555;-47
2021/01/09 05:23:06;;;;;;;0.93;0.93;;;;;;;-1.13;96.78;100584.60;1786391;80;21106;-45
2021/01/09 05:25:34;;;;;;;0.62;0.53;;;;;;;-1.12;96.81;100580.06;1777249;80;21513;-46
2021/01/09 05:28:01;;;;;;;0.15;0.15;;;;;;;-1.12;96.82;100574.70;1762240;80;21142;-46
2021/01/09 05:30:29;;;;;;;0.10;0.10;;;;;;;-1.11;96.85;100581.73;1777259;80;21130;-46
2021/01/09 05:32:56;;;;;;;1.20;0.93;;;;;;;-1.11;96.84;100579.05;1786436;80;21114;-45
2021/01/09 05:35:24;;;;;;;0.13;0.13;;;;;;;-1.11;96.88;100577.19;1786436;80;21091;-47
2021/01/09 05:37:51;;;;;;;1.32;1.22;;;;;;;-1.10;96.93;100582.03;1786503;80;21126;-46
2021/01/09 05:40:18;;;;;;;1.35;0.93;;;;;;;-1.11;96.98;100571.83;1786535;80;21118;-46
2021/01/09 05:42:48;;;;;;;0.85;0.60;;;;;;;-1.09;97.03;100572.95;1786404;80;21137;-45
2021/01/09 05:45:15;;;;;;;0.85;0.85;;;;;;;-1.08;97.06;100577.30;1786470;80;21608;-46
2021/01/09 05:47:42;;;;;;;0.57;0.57;;;;;;;-1.06;97.09;100585.13;1777310;80;21098;-46
2021/01/09 05:50:10;;;;;;;0.30;0.30;;;;;;;-1.06;97.08;100585.98;1788032;80;21581;-45
2021/01/09 05:52:39;;;;;;;2.17;1.98;;;;;;;-1.04;97.09;100585.77;1786547;80;21099;-45
2021/01/09 05:55:10;;;;;;;0.47;0.47;;;;;;;-1.03;97.10;100588.78;1786470;80;21181;-46
2021/01/09 05:57:37;;;;;;;1.10;1.10;;;;;;;-1.02;97.12;100597.95;1786273;80;21169;-46
2021/01/09 06:00:10;;;;;;;2.95;2.02;;;;;;;-1.01;97.17;100596.94;1786357;80;21229;-48
2021/01/09 06:03:01;;;;;;;1.02;0.65;;;;;;;-0.99;97.18;100600.74;1786389;80;21564;-47
2021/01/09 06:05:37;;;;;;;0.82;0.82;;;;;;;-0.99;97.20;100600.25;1786350;80;21161;-47
2021/01/09 06:08:05;;;;;;;1.37;0.47;;;;;;;-0.97;97.23;100602.72;1771543;81;21137;-46
2021/01/09 06:10:33;;;;;;;1.02;0.70;;;;;;;-0.96;97.21;100606.55;1771456;81;20995;-46
2021/01/09 06:13:01;;;;;;;1.95;1.50;;;;;;;-0.96;97.23;100603.88;1771572;81;21169;-47
2021/01/09 06:15:30;;;;;;;1.67;1.25;;;;;;;-0.95;97.24;100606.86;1786458;80;21147;-46
2021/01/09 06:18:01;;;;;;;0.30;0.30;;;;;;;-0.94;97.31;100604.50;1786591;80;21126;-46
2021/01/09 06:20:29;;;;;;;1.07;1.07;;;;;;;-0.91;97.33;100604.62;1786664;80;21115;-46
2021/01/09 06:22:58;;;;;;;0.88;0.88;;;;;;;-0.90;97.35;100611.11;1786561;80;21119;-47
2021/01/09 06:25:26;;;;;;;0.75;0.75;;;;;;;-0.87;97.33;100618.78;1786691;80;21397;-46
2021/01/09 06:27:56;;;;;;;1.12;0.78;;;;;;;-0.85;97.32;100611.03;1762634;80;21130;-46
2021/01/09 06:30:24;;;;;;;0.40;0.40;;;;;;;-0.83;97.29;100611.66;1788281;80;21145;-46
2021/01/09 06:32:56;;;;;;;2.47;0.68;;;;;;;-0.81;97.29;100612.30;1786648;80;21122;-46
2021/01/09 06:35:23;;;;;;;0.40;0.40;;;;;;;-0.81;97.31;100617.14;1786743;80;21154;-49
2021/01/09 06:37:51;;;;;;;0.15;0.15;;;;;;;-0.79;97.33;100615.58;1786654;80;21134;-46
2021/01/09 06:40:18;;;;;;;1.35;1.25;;;;;;;-0.77;97.34;100618.89;1786559;80;21637;-46
2021/01/09 06:42:46;;;;;;;3.08;0.88;;;;;;;-0.76;97.35;100620.05;1786465;80;21117;-47
2021/01/09 06:45:14;;;;;;;0.47;0.40;;;;;;;-0.73;97.35;100621.50;1786430;80;21114;-48
2021/01/09 06:47:41;;;;;;;1.95;1.05;;;;;;;-0.72;97.34;100625.83;1777496;80;21138;-47
2021/01/09 06:50:24;;;;;;;0.23;0.23;;;;;;;-0.71;97.37;100628.32;1788157;80;21142;-48
2021/01/09 06:52:57;;;;;;;1.35;0.60;;;;;;;-0.69;97.40;100628.13;1786845;80;21635;-47
2021/01/09 06:55:43;;;;;;;1.37;1.35;;;;;;;-0.66;97.37;100634.43;1786711;80;21189;-47
2021/01/09 06:58:10;;;;;;;0.57;0.55;;;;;;;-0.65;97.40;100636.08;1786661;80;21177;-47
2021/01/09 07:00:38;;;;;;;0.85;0.85;;;;;;;-0.63;97.40;100635.37;1785746;80;21196;-48
2021/01/09 07:03:17;;;;;;;0.53;0.40;;;;;;;-0.59;97.40;100636.63;1766922;80;21107;-47
2021/01/09 07:05:51;;;;;;;0.72;0.72;;;;;;;-0.57;97.43;100637.27;1785751;80;21579;-47
2021/01/09 07:08:29;;;;;;;0.13;0.13;;;;;;;-0.53;97.42;100645.72;1779243;80;21130;-47
2021/01/09 07:10:58;;;;;;;0.33;0.33;;;;;;;-0.51;97.43;100643.15;1769412;80;21138;-47
2021/01/09 07:13:27;;;;;;;0.00;0.00;;;;;;;-0.48;97.42;100646.77;1768905;80;21110;-47
2021/01/09 07:16:12;;;;;;;0.72;0.72;;;;;;;-0.45;97.40;100648.22;1782979;80;21098;-47
2021/01/09 07:18:49;;;;;;;0.78;0.78;;;;;;;-0.42;97.36;100649.67;1756783;81;21555;-47
2021/01/09 07:21:19;;;;;;;1.67;1.57;;;;;;;-0.41;97.35;100652.16;1757865;80;21115;-47
2021/01/09 07:23:52;;;;;;;0.42;0.42;;;;;;;-0.39;97.28;100648.77;1787942;80;21151;-46
2021/01/09 07:26:19;;;;;;;;;;;;;;;-0.37;97.30;100652.58;1760299;80;21135;-47
2021/01/09 07:28:47;;;;;;;2.30;1.27;;;;;;;-0.36;97.26;100652.38;1752271;81;20244;-47
2021/01/09 07:31:14;;;;;;;0.20;0.20;;;;;;;-0.33;97.22;100659.20;1763370;80;21107;-48
2021/01/09 07:33:42;;;;;;;0.20;0.20;;;;;;;-0.33;97.24;100657.34;1762496;80;21130;-47
2021/01/09 07:36:13;;;;;;;0.30;0.30;;;;;;;-0.31;97.23;100661.17;1754522;81;21162;-48
2021/01/09 07:38:45;;;;;;;1.22;0.90;;;;;;;-0.29;97.20;100663.16;1757301;81;21166;-47
2021/01/09 07:41:34;;;;;;;2.55;1.02;;;;;;;-0.26;97.16;100662.73;1760463;81;21475;-46
2021/01/09 07:44:15;;;;;;;1.45;1.35;;;;;;;-0.26;97.15;100666.77;1778310;80;21386;-47
2021/01/09 07:46:55;;;;;;;1.20;1.12;;;;;;;-0.23;97.10;100664.48;1787966;80;21107;-47
2021/01/09 07:49:26;;;;;;;1.20;1.20;;;;;;;-0.19;97.02;100678.88;1787784;80;21130;-48
2021/01/09 07:51:57;;;;;;;1.57;1.45;;;;;;;-0.17;97.00;100675.45;1787880;80;21394;-47
2021/01/09 07:54:43;;;;;;;1.30;0.82;;;;;;;-0.15;97.00;100678.24;1726574;80;21653;-48
2021/01/09 07:57:23;;;;;;;0.35;0.35;;;;;;;-0.10;96.96;100678.98;1743241;81;21122;-47
2021/01/09 08:00:02;;;;;;;0.93;0.85;;;;;;;-0.07;96.91;100680.77;1768823;81;21441;-47
2021/01/09 08:02:46;;;;;;;0.37;0.37;;;;;;;-0.04;96.83;100683.03;1782054;78;21155;-47
2021/01/09 08:05:20;;;;;;;3.77;1.10;;;;;;;0.01;96.76;100691.01;1757377;80;21126;-47
2021/01/09 08:07:53;;;;;;;0.20;0.20;;;;;;;0.07;96.65;100679.42;1754327;80;21166;-48
2021/01/09 08:10:30;;;;;;;1.57;1.40;;;;;;;0.11;96.52;100684.72;1762474;80;21153;-48
2021/01/09 08:13:05;;;;;;;0.10;0.10;;;;;;;0.14;96.44;100677.05;1782498;80;21103;-47
2021/01/09 08:15:36;;;;;;;2.52;0.62;;;;;;;0.20;96.43;100678.12;1787105;78;21130;-46
2021/01/09 08:18:06;;;;;;;1.80;1.70;;;;;;;0.27;96.33;100678.10;1793099;80;21181;-46
2021/01/09 08:20:33;;;;;;;0.35;0.35;;;;;;;0.31;96.04;100678.83;1793274;80;21146;-46
2021/01/09 08:23:05;;;;;;;1.45;1.07;;;;;;;0.35;95.93;100678.74;1770341;78;21161;-47
2021/01/09 08:25:35;;;;;;;0.28;0.28;;;;;;;0.39;95.89;100673.23;1793459;80;21576;-47
2021/01/09 08:28:03;;;;;;;1.12;0.93;;;;;;;0.45;95.59;100681.55;1785798;80;21421;-46
2021/01/09 08:30:33;;;;;;;0.90;0.88;;;;;;;0.48;95.44;100675.74;1774313;80;21146;-47
2021/01/09 08:33:09;;;;;;;5.72;1.45;;;;;;;0.51;95.28;100669.42;1757226;80;21110;-47
2021/01/09 08:35:51;;;;;;;0.50;0.50;;;;;;;0.57;95.14;100674.47;1756191;80;21433;-46
2021/01/09 08:38:27;;;;;;;1.00;0.62;;;;;;;0.60;94.77;100676.25;1774230;80;21110;-45
2021/01/09 08:40:57;;;;;;;0.42;0.42;;;;;;;0.63;94.66;100676.34;1760331;80;21312;-47
2021/01/09 08:43:26;;;;;;;2.20;0.80;;;;;;;0.67;94.56;100670.87;1767620;80;21153;-46
2021/01/09 08:45:56;;;;;;;1.15;1.05;;;;;;;0.70;94.24;100666.41;1762191;80;21127;-46
2021/01/09 08:48:29;;;;;;;0.05;0.05;;;;;;;0.74;94.25;100667.66;1769401;80;21114;-46
2021/01/09 08:51:12;;;;;;;0.45;0.45;;;;;;;0.77;94.08;100665.89;1785343;80;21178;-48
2021/01/09 08:53:52;;;;;;;1.57;1.47;;;;;;;0.82;93.88;100659.88;1763689;80;21457;-46
2021/01/09 08:56:21;;;;;;;1.10;1.00;;;;;;;0.86;93.63;100658.41;1770239;80;21596;-46
2021/01/09 08:58:49;;;;;;;1.22;0.75;;;;;;;0.90;93.46;100654.27;1745277;80;21263;-47
2021/01/09 09:01:20;;;;;;;1.47;1.37;;;;;;;0.94;93.15;100651.47;1767648;80;21111;-47
2021/01/09 09:03:49;;;;;;;2.40;0.72;;;;;;;0.99;92.72;100652.16;1778354;80;21284;-46
2021/01/09 09:06:18;;;;;;;1.80;1.37;;;;;;;1.02;92.73;100646.38;1762961;80;21659;-46
2021/01/09 09:08:46;;;;;;;0.68;0.68;;;;;;;1.07;92.66;100646.56;1706755;81;21516;-48
2021/01/09 09:11:16;;;;;;;1.17;1.07;;;;;;;1.12;92.26;100644.06;1769623;80;21151;-47
2021/01/09 09:13:43;;;;;;;0.37;0.37;;;;;;;1.16;91.94;100638.55;1770167;80;21114;-46
2021/01/09 09:16:22;;;;;;;2.45;0.95;;;;;;;1.19;91.89;100647.56;1783760;80;21189;-46
2021/01/09 09:18:50;;;;;;;0.60;0.57;;;;;;;1.24;91.86;100636.98;1784921;80;21545;-46
2021/01/09 09:21:18;;;;;;;0.53;0.50;;;;;;;1.29;91.41;100637.69;1782239;80;21153;-47
2021/01/09 09:23:54;;;;;;;0.68;0.68;;;;;;;1.33;91.38;100641.59;1784728;80;21434;-47
2021/01/09 09:26:30;;;;;;;1.10;1.02;;;;;;;1.37;91.04;100640.66;1784691;80;21137;-46
2021/01/09 09:28:59;;;;;;;0.17;0.17;;;;;;;1.40;90.89;100644.27;1785247;80;21465;-46
2021/01/09 09:31:42;;;;;;;3.00;0.95;;;;;;;1.42;90.64;100638.14;1785339;80;21138;-46
2021/01/09 09:34:14;;;;;;;1.35;0.98;;;;;;;1.44;90.50;100639.58;1785869;80;21023;-46
2021/01/09 09:36:54;;;;;;;1.10;0.75;;;;;;;1.46;90.39;100639.38;1785671;80;21146;-47
2021/01/09 09:39:24;;;;;;;0.80;0.80;;;;;;;1.46;90.24;100639.38;1785655;80;21138;-46
2021/01/09 09:42:00;;;;;;;0.23;0.23;;;;;;;1.49;89.94;100640.29;1785644;80;21473;-46
2021/01/09 09:44:43;;;;;;;0.25;0.25;;;;;;;1.49;89.62;100639.77;1785952;80;21584;-47
2021/01/09 09:47:26;;;;;;;1.10;0.98;;;;;;;1.49;89.31;100636.25;1785883;80;21177;-48
2021/01/09 09:49:59;;;;;;;0.70;0.70;;;;;;;1.46;89.21;100638.03;1785856;80;21110;-47
2021/01/09 09:52:27;;;;;;;1.23;1.13;;;;;;;1.45;89.21;100638.53;1786076;80;21119;-46
2021/01/09 09:55:03;;;;;;;1.32;1.22;;;;;;;1.44;89.27;100632.03;1786007;80;22244;-47
2021/01/09 09:57:31;;;;;;;0.90;0.90;;;;;;;1.46;89.29;100628.61;1785885;80;21122;-46
2021/01/09 10:00:11;;;;;;;1.02;1.02;;;;;;;1.48;89.21;100635.43;1785907;80;20991;-45
2021/01/09 10:02:53;;;;;;;0.20;0.20;;;;;;;1.53;89.13;100633.94;1785520;80;33902;-46
2021/01/09 10:05:23;;;;;;;1.80;1.70;;;;;;;1.55;89.10;100631.34;1785922;80;21410;-46
2021/01/09 10:08:11;;;;;;;1.45;0.90;;;;;;;1.61;89.15;100630.48;1786202;80;21142;-47
2021/01/09 10:10:40;;;;;;;1.20;1.12;;;;;;;1.66;89.03;100623.93;1786637;80;21153;-47
2021/01/09 10:13:08;;;;;;;0.45;0.45;;;;;;;1.69;88.82;100624.84;1786415;80;21201;-47
2021/01/09 10:15:38;;;;;;;1.50;1.40;;;;;;;1.71;88.79;100621.41;1786381;80;21119;-48
2021/01/09 10:18:06;;;;;;;0.65;0.40;;;;;;;1.72;88.75;100624.92;1786451;80;21102;-47
2021/01/09 10:20:35;;;;;;;0.60;0.60;;;;;;;1.71;88.67;100626.80;1786575;80;21391;-47
2021/01/09 10:23:03;;;;;;;1.37;1.17;;;;;;;1.70;88.70;100626.47;1786438;80;21556;-47
2021/01/09 10:25:30;;;;;;;2.22;1.70;;;;;;;1.69;88.57;100623.48;1786404;80;21117;-47
2021/01/09 10:27:58;;;;;;;1.10;0.35;;;;;;;1.68;88.36;100623.69;1786358;80;21137;-47
2021/01/09 10:30:26;;;;;;;1.47;1.10;;;;;;;1.65;88.23;100623.61;1786408;80;21091;-47
2021/01/09 10:32:56;;;;;;;0.85;0.85;;;;;;;1.63;88.06;100621.67;1786430;80;21173;-48
2021/01/09 10:35:25;;;;;;;0.25;0.25;;;;;;;1.61;88.00;100626.97;1751165;80;21121;-47
2021/01/09 10:37:53;;;;;;;5.12;1.98;;;;;;;1.61;87.82;100623.75;1784877;80;21615;-46
2021/01/09 10:40:22;;;;;;;1.30;0.88;;;;;;;1.59;87.65;100613.70;1761592;80;22259;-52
2021/01/09 10:42:49;;;;;;;3.17;1.15;;;;;;;1.59;87.18;100620.45;1772816;80;21110;-52
2021/01/09 10:45:18;;;;;;;1.15;1.15;;;;;;;1.58;86.99;100609.87;1786420;80;21107;-52
2021/01/09 10:47:45;;;;;;;1.72;1.50;;;;;;;1.55;87.21;100607.09;1786507;80;21110;-52
2021/01/09 10:50:16;;;;;;;0.40;0.40;;;;;;;1.54;87.30;100609.50;1782923;80;21145;-52
2021/01/09 10:52:44;;;;;;;2.00;1.85;;;;;;;1.54;87.60;100614.88;1786342;80;21130;-52
2021/01/09 10:55:12;;;;;;;0.65;0.65;;;;;;;1.56;87.67;100610.11;1770991;80;21146;-52
2021/01/09 10:57:40;;;;;;;2.05;1.62;;;;;;;1.60;87.78;100611.31;1763279;80;21145;-52
2021/01/09 11:00:09;;;;;;;1.50;0.95;;;;;;;1.65;87.64;100611.48;1766247;80;21450;-52
2021/01/09 11:02:37;;;;;;;0.20;0.20;;;;;;;1.70;87.48;100607.62;1784759;80;21210;-52
2021/01/09 11:05:06;;;;;;;0.90;0.90;;;;;;;1.73;87.22;100603.66;1778515;80;21450;-52
2021/01/09 11:07:34;;;;;;;0.17;0.17;;;;;;;1.76;87.09;100609.98;1768675;80;21122;-50
2021/01/09 11:10:03;;;;;;;1.10;1.02;;;;;;;1.80;86.96;100611.71;1786439;80;21141;-49
2021/01/09 11:12:33;;;;;;;4.17;2.35;;;;;;;1.84;86.98;100607.55;1780687;80;21186;-50
2021/01/09 11:15:02;;;;;;;1.15;1.15;;;;;;;1.88;86.75;100614.98;1757251;80;21166;-51
2021/01/09 11:17:30;;;;;;;2.37;1.60;;;;;;;1.89;86.26;100610.41;1765821;80;21122;-51
2021/01/09 11:19:57;;;;;;;3.27;1.55;;;;;;;1.85;85.81;100616.74;1786533;80;21099;-51
2021/01/09 11:22:27;;;;;;;1.87;0.57;;;;;;;1.81;85.77;100619.59;1786636;80;21114;-50
2021/01/09 11:24:55;;;;;;;0.70;0.70;;;;;;;1.77;85.91;100619.70;1782896;80;21862;-50
2021/01/09 11:27:23;;;;;;;0.78;0.68;;;;;;;1.75;85.95;100620.44;1735407;82;21222;-51
2021/01/09 11:29:50;;;;;;;0.47;0.47;;;;;;;1.73;85.96;100626.56;1760986;80;21165;-50
2021/01/09 11:32:20;;;;;;;0.30;0.25;;;;;;;1.70;85.99;100621.09;1762136;81;21154;-51
2021/01/09 11:34:49;;;;;;;0.55;0.55;;;;;;;1.68;85.90;100624.55;1738826;81;21138;-51
2021/01/09 11:37:19;;;;;;;1.52;1.47;;;;;;;1.67;85.99;100628.79;1726915;81;21169;-51
2021/01/09 11:39:50;;;;;;;1.10;1.10;;;;;;;1.63;85.89;100620.33;1741348;81;21457;-50